Time;durP1;ratioP1;P1;durP2;ratioP2;P2;SDS_P1;SDS_P2;PMS_P1;PMS_P2;Temp;Humidity;BMP_temperature;BMP_pressure;BME280_temperature;BME280_humidity;BME280_pressure;Samples;Min_cycle;Max_cycle;Signal;HPM_P1;HPM_P2
2022/03/23 00:00:39;;;;;;;20.02;9.60;;;;;;;;;;5032581;28;20072;-71
2022/03/23 00:03:05;;;;;;;17.45;8.60;;;;;;;;;;5037561;28;20019;-70
2022/03/23 00:05:30;;;;;;;26.30;9.40;;;;;;;;;;5035583;28;20421;-70
2022/03/23 00:07:56;;;;;;;20.63;10.05;;;;;;;;;;5037787;28;20017;-70
2022/03/23 00:10:21;;;;;;;23.92;9.10;;;;;;;;;;5034397;28;20029;-70
2022/03/23 00:12:46;;;;;;;21.38;9.48;;;;;;;;;;5030302;28;20024;-70
2022/03/23 00:15:12;;;;;;;17.10;9.63;;;;;;;;;;5039402;28;20021;-70
2022/03/23 00:17:37;;;;;;;18.90;9.50;;;;;;;;;;5044891;28;20017;-71
2022/03/23 00:20:04;;;;;;;21.73;9.50;;;;;;;;;;5038367;28;20017;-68
2022/03/23 00:22:29;;;;;;;19.75;9.50;;;;;;;;;;5039216;28;20026;-69
2022/03/23 00:24:56;;;;;;;22.80;9.38;;;;;;;;;;5034559;28;20027;-71
2022/03/23 00:27:21;;;;;;;16.20;9.48;;;;;;;;;;5037716;28;20081;-71
2022/03/23 00:29:46;;;;;;;23.38;10.02;;;;;;;;;;5041436;28;20135;-71
2022/03/23 00:32:14;;;;;;;19.43;10.60;;;;;;;;;;5031126;28;20698;-69
2022/03/23 00:34:39;;;;;;;23.55;9.70;;;;;;;;;;5037738;28;20282;-71
2022/03/23 00:37:04;;;;;;;21.27;9.90;;;;;;;;;;5040337;28;20016;-70
2022/03/23 00:39:29;;;;;;;21.58;9.68;;;;;;;;;;5037443;28;20029;-70
2022/03/23 00:41:56;;;;;;;20.25;9.85;;;;;;;;;;5038431;28;20083;-71
2022/03/23 00:44:21;;;;;;;25.65;11.00;;;;;;;;;;5037138;28;20453;-71
2022/03/23 00:46:46;;;;;;;18.88;9.20;;;;;;;;;;5039250;28;20113;-70
2022/03/23 00:49:12;;;;;;;19.85;9.30;;;;;;;;;;5036738;28;20028;-69
2022/03/23 00:51:38;;;;;;;21.75;9.45;;;;;;;;;;5038481;28;20025;-71
2022/03/23 00:54:03;;;;;;;20.75;9.90;;;;;;;;;;5037135;28;20017;-70
2022/03/23 00:56:28;;;;;;;20.48;9.20;;;;;;;;;;5032477;28;20030;-71
2022/03/23 00:58:53;;;;;;;25.70;11.75;;;;;;;;;;5035326;28;20022;-68
2022/03/23 01:01:19;;;;;;;15.55;9.20;;;;;;;;;;5035888;28;20022;-68
2022/03/23 01:03:44;;;;;;;24.20;10.52;;;;;;;;;;5038559;28;20040;-68
2022/03/23 01:06:09;;;;;;;21.15;10.60;;;;;;;;;;5037154;28;20131;-70
2022/03/23 01:08:34;;;;;;;23.27;10.02;;;;;;;;;;5045022;28;20060;-68
2022/03/23 01:11:00;;;;;;;24.50;10.50;;;;;;;;;;5042244;28;20056;-68
2022/03/23 01:13:25;;;;;;;19.33;10.02;;;;;;;;;;5041661;28;20104;-70
2022/03/23 01:15:50;;;;;;;26.42;10.80;;;;;;;;;;5042418;28;20017;-70
2022/03/23 01:18:15;;;;;;;19.73;9.77;;;;;;;;;;5036734;28;20020;-70
2022/03/23 01:20:40;;;;;;;21.35;9.93;;;;;;;;;;5039993;28;20533;-70
2022/03/23 01:23:06;;;;;;;21.95;10.65;;;;;;;;;;5041656;28;20020;-70
2022/03/23 01:25:31;;;;;;;24.73;10.70;;;;;;;;;;5042112;28;20023;-68
2022/03/23 01:27:57;;;;;;;25.00;11.30;;;;;;;;;;5039077;28;20640;-69
2022/03/23 01:30:22;;;;;;;28.67;11.40;;;;;;;;;;5043528;28;20033;-71
2022/03/23 01:32:47;;;;;;;26.45;10.90;;;;;;;;;;5042181;28;20024;-71
2022/03/23 01:35:12;;;;;;;20.75;10.20;;;;;;;;;;5043640;28;20435;-71
2022/03/23 01:37:38;;;;;;;23.40;10.27;;;;;;;;;;5045809;28;20029;-71
2022/03/23 01:40:04;;;;;;;22.67;10.73;;;;;;;;;;5039744;28;20039;-71
2022/03/23 01:42:29;;;;;;;20.05;10.43;;;;;;;;;;5038716;28;20486;-69
2022/03/23 01:44:55;;;;;;;22.33;11.18;;;;;;;;;;5033506;28;20081;-71
2022/03/23 01:47:20;;;;;;;21.65;9.65;;;;;;;;;;5039963;28;20458;-71
2022/03/23 01:49:50;;;;;;;19.70;10.48;;;;;;;;;;5039645;28;20021;-71
2022/03/23 01:52:17;;;;;;;19.75;10.43;;;;;;;;;;5035571;28;20032;-67
2022/03/23 01:54:44;;;;;;;23.50;10.52;;;;;;;;;;5037806;28;20032;-71
2022/03/23 01:57:10;;;;;;;22.10;10.50;;;;;;;;;;5044166;28;20044;-71
2022/03/23 01:59:36;;;;;;;22.17;10.15;;;;;;;;;;5037474;28;20092;-71
2022/03/23 02:02:02;;;;;;;21.50;10.43;;;;;;;;;;5044505;28;20020;-71
2022/03/23 02:04:27;;;;;;;24.50;10.80;;;;;;;;;;5037153;28;20017;-70
2022/03/23 02:06:52;;;;;;;22.65;10.68;;;;;;;;;;5041701;28;20048;-71
2022/03/23 02:09:18;;;;;;;23.27;11.45;;;;;;;;;;5041276;28;20075;-70
2022/03/23 02:11:44;;;;;;;23.48;10.23;;;;;;;;;;5042339;28;20187;-71
2022/03/23 02:14:10;;;;;;;21.85;11.38;;;;;;;;;;5040410;28;20433;-71
2022/03/23 02:16:45;;;;;;;19.50;11.02;;;;;;;;;;5043540;28;20017;-67
2022/03/23 02:19:11;;;;;;;23.13;12.13;;;;;;;;;;5039100;28;20029;-71
2022/03/23 02:21:36;;;;;;;21.55;10.32;;;;;;;;;;5043880;28;20021;-71
2022/03/23 02:24:04;;;;;;;21.05;10.07;;;;;;;;;;5037913;28;20025;-70
2022/03/23 02:26:31;;;;;;;23.63;11.02;;;;;;;;;;5037667;28;20056;-71
2022/03/23 02:28:56;;;;;;;19.38;10.13;;;;;;;;;;5038333;28;20021;-71
2022/03/23 02:31:21;;;;;;;23.45;11.15;;;;;;;;;;5028387;28;20017;-71
2022/03/23 02:33:47;;;;;;;22.52;11.85;;;;;;;;;;5038433;28;20025;-70
2022/03/23 02:36:12;;;;;;;27.27;10.88;;;;;;;;;;5042550;28;20021;-71
2022/03/23 02:38:37;;;;;;;29.00;11.93;;;;;;;;;;5033765;28;20181;-71
2022/03/23 02:41:03;;;;;;;22.23;11.57;;;;;;;;;;5040857;28;20350;-71
2022/03/23 02:43:28;;;;;;;22.90;11.30;;;;;;;;;;5032449;28;20021;-71
2022/03/23 02:45:53;;;;;;;21.42;10.25;;;;;;;;;;5037596;28;20029;-71
2022/03/23 02:48:19;;;;;;;24.67;11.90;;;;;;;;;;5041357;28;20021;-68
2022/03/23 02:50:44;;;;;;;26.73;12.55;;;;;;;;;;5042871;28;20060;-71
2022/03/23 03:01:54;;;;;;;21.20;11.27;;;;;;;;;;5039074;28;20028;-71
2022/03/23 03:04:20;;;;;;;27.83;10.93;;;;;;;;;;5037097;28;20477;-71
2022/03/23 03:06:46;;;;;;;21.70;10.90;;;;;;;;;;5038577;28;20018;-70
2022/03/23 03:09:11;;;;;;;22.15;11.40;;;;;;;;;;5033556;28;20033;-70
2022/03/23 03:11:37;;;;;;;24.23;11.25;;;;;;;;;;5035096;28;20421;-70
2022/03/23 03:14:02;;;;;;;28.08;11.98;;;;;;;;;;5039265;28;20021;-71
2022/03/23 03:16:27;;;;;;;23.35;11.27;;;;;;;;;;5037956;28;20076;-67
2022/03/23 03:18:52;;;;;;;23.95;11.63;;;;;;;;;;5039489;28;20390;-71
2022/03/23 03:21:18;;;;;;;23.25;11.02;;;;;;;;;;5036840;28;20466;-69
2022/03/23 03:23:44;;;;;;;25.52;11.38;;;;;;;;;;5036088;28;20029;-71
2022/03/23 03:26:10;;;;;;;25.50;11.05;;;;;;;;;;5030989;28;20055;-71
2022/03/23 03:28:36;;;;;;;23.92;11.60;;;;;;;;;;5039095;28;20022;-71
2022/03/23 03:31:02;;;;;;;26.63;12.52;;;;;;;;;;5038914;28;20104;-71
2022/03/23 03:33:27;;;;;;;26.27;10.98;;;;;;;;;;5033914;28;20068;-71
2022/03/23 03:35:52;;;;;;;26.58;11.80;;;;;;;;;;5040843;28;20495;-71
2022/03/23 03:38:18;;;;;;;23.88;11.93;;;;;;;;;;5037276;28;20490;-71
2022/03/23 03:40:44;;;;;;;24.25;11.32;;;;;;;;;;5039434;28;20034;-71
2022/03/23 03:43:10;;;;;;;24.10;11.88;;;;;;;;;;5037908;28;20025;-68
2022/03/23 03:45:35;;;;;;;27.08;12.25;;;;;;;;;;5038470;28;20482;-68
2022/03/23 03:48:00;;;;;;;23.38;11.60;;;;;;;;;;5036994;28;20072;-71
2022/03/23 03:50:25;;;;;;;29.67;13.70;;;;;;;;;;5039274;28;20039;-70
2022/03/23 03:52:50;;;;;;;24.95;11.98;;;;;;;;;;5035077;28;20082;-70
2022/03/23 03:55:16;;;;;;;25.08;10.93;;;;;;;;;;5034090;28;20056;-68
2022/03/23 03:57:41;;;;;;;23.65;11.63;;;;;;;;;;5037669;28;20521;-71
2022/03/23 04:00:07;;;;;;;24.90;10.48;;;;;;;;;;5040454;28;20104;-68
2022/03/23 04:02:32;;;;;;;20.95;11.18;;;;;;;;;;5037373;28;20591;-68
2022/03/23 04:04:57;;;;;;;23.67;12.35;;;;;;;;;;5037059;28;20536;-70
2022/03/23 04:07:22;;;;;;;28.70;12.40;;;;;;;;;;5034913;28;20044;-69
2022/03/23 04:09:47;;;;;;;26.93;12.07;;;;;;;;;;5033816;28;20096;-70
2022/03/23 04:12:12;;;;;;;27.90;11.52;;;;;;;;;;5040192;28;20751;-68
2022/03/23 04:14:38;;;;;;;26.13;11.53;;;;;;;;;;5042804;28;20025;-70
2022/03/23 04:17:03;;;;;;;26.38;12.20;;;;;;;;;;5036795;28;20291;-68
2022/03/23 04:19:28;;;;;;;30.08;12.38;;;;;;;;;;5033418;28;20028;-71
2022/03/23 04:21:54;;;;;;;22.40;11.15;;;;;;;;;;5039180;28;20075;-70
2022/03/23 04:24:20;;;;;;;27.77;11.75;;;;;;;;;;5035709;28;20068;-69
2022/03/23 04:26:45;;;;;;;27.15;12.00;;;;;;;;;;5037184;28;20032;-68
2022/03/23 04:29:10;;;;;;;28.95;12.35;;;;;;;;;;5034635;28;20027;-68
2022/03/23 04:31:35;;;;;;;22.70;12.02;;;;;;;;;;5036163;28;20026;-71
2022/03/23 04:34:00;;;;;;;29.02;12.38;;;;;;;;;;5035794;28;20114;-68
2022/03/23 04:36:26;;;;;;;26.02;11.90;;;;;;;;;;5040263;28;20382;-71
2022/03/23 04:38:51;;;;;;;28.33;13.23;;;;;;;;;;5032453;28;20031;-71
2022/03/23 04:41:16;;;;;;;28.73;12.90;;;;;;;;;;5035100;28;20389;-71
2022/03/23 04:43:41;;;;;;;26.27;12.60;;;;;;;;;;5038631;28;20025;-68
2022/03/23 04:46:06;;;;;;;28.27;13.55;;;;;;;;;;5034887;28;20024;-70
2022/03/23 04:48:32;;;;;;;27.98;11.88;;;;;;;;;;5031377;28;20017;-68
2022/03/23 04:50:57;;;;;;;24.33;12.27;;;;;;;;;;5040549;28;20056;-69
2022/03/23 04:53:22;;;;;;;23.20;12.05;;;;;;;;;;5019322;28;20095;-68
2022/03/23 04:55:47;;;;;;;30.45;13.20;;;;;;;;;;5035088;28;20020;-68
2022/03/23 04:58:13;;;;;;;28.02;11.90;;;;;;;;;;5036370;28;20029;-70
2022/03/23 05:00:38;;;;;;;23.98;10.55;;;;;;;;;;5034349;28;20456;-68
2022/03/23 05:03:04;;;;;;;27.60;12.77;;;;;;;;;;5038756;28;20025;-69
2022/03/23 05:05:30;;;;;;;29.42;12.32;;;;;;;;;;5036840;28;20042;-71
2022/03/23 05:07:55;;;;;;;25.02;11.77;;;;;;;;;;5032968;28;20092;-70
2022/03/23 05:10:20;;;;;;;28.58;13.95;;;;;;;;;;5035557;28;20549;-69
2022/03/23 05:12:46;;;;;;;27.45;12.60;;;;;;;;;;5036162;28;20032;-69
2022/03/23 05:15:12;;;;;;;32.83;13.43;;;;;;;;;;5029266;28;20060;-68
2022/03/23 05:17:37;;;;;;;29.05;12.55;;;;;;;;;;5035655;28;20028;-68
2022/03/23 05:20:04;;;;;;;36.17;12.98;;;;;;;;;;5037008;28;20037;-68
2022/03/23 05:22:29;;;;;;;31.90;12.75;;;;;;;;;;5037967;28;20052;-73
2022/03/23 05:24:55;;;;;;;28.27;11.52;;;;;;;;;;5039500;28;20409;-68
2022/03/23 05:27:20;;;;;;;27.23;11.47;;;;;;;;;;5037771;28;20017;-69
2022/03/23 05:29:45;;;;;;;35.58;12.63;;;;;;;;;;5028164;28;20772;-68
2022/03/23 05:32:16;;;;;;;26.67;12.60;;;;;;;;;;5033593;28;20474;-68
2022/03/23 05:34:42;;;;;;;28.52;13.02;;;;;;;;;;5026952;28;20259;-68
2022/03/23 05:37:07;;;;;;;31.98;13.18;;;;;;;;;;5030168;28;20044;-69
2022/03/23 05:39:32;;;;;;;25.10;12.33;;;;;;;;;;5034660;28;20021;-69
2022/03/23 05:41:57;;;;;;;32.63;12.20;;;;;;;;;;5036152;28;20280;-69
2022/03/23 05:44:22;;;;;;;26.30;12.55;;;;;;;;;;5036278;28;20020;-69
2022/03/23 05:46:48;;;;;;;24.45;11.80;;;;;;;;;;5037382;28;20474;-69
2022/03/23 05:49:14;;;;;;;31.95;12.88;;;;;;;;;;5038399;28;20017;-69
2022/03/23 05:51:39;;;;;;;31.52;13.50;;;;;;;;;;5035522;28;20025;-69
2022/03/23 05:54:04;;;;;;;29.27;11.68;;;;;;;;;;5034700;28;21764;-69
2022/03/23 05:56:29;;;;;;;26.55;13.20;;;;;;;;;;5033532;28;20410;-69
2022/03/23 05:58:55;;;;;;;30.85;13.30;;;;;;;;;;5034638;28;20024;-69
2022/03/23 06:01:20;;;;;;;24.40;12.07;;;;;;;;;;5038755;28;20044;-69
2022/03/23 06:03:49;;;;;;;26.92;12.20;;;;;;;;;;5041643;28;20032;-69
2022/03/23 06:06:14;;;;;;;27.15;12.68;;;;;;;;;;5026758;28;20037;-69
2022/03/23 06:08:39;;;;;;;30.90;13.55;;;;;;;;;;5032053;28;20029;-69
2022/03/23 06:11:05;;;;;;;28.40;12.67;;;;;;;;;;5037716;28;20028;-70
2022/03/23 06:13:30;;;;;;;27.75;12.82;;;;;;;;;;5037688;28;20276;-69
2022/03/23 06:15:55;;;;;;;34.00;13.47;;;;;;;;;;5041997;28;20017;-69
2022/03/23 06:18:20;;;;;;;25.90;12.05;;;;;;;;;;5038159;28;20637;-69
2022/03/23 06:20:46;;;;;;;26.70;14.02;;;;;;;;;;5034955;28;20021;-69
2022/03/23 06:23:11;;;;;;;29.20;13.35;;;;;;;;;;5036497;28;20028;-69
2022/03/23 06:25:37;;;;;;;30.30;12.77;;;;;;;;;;5038191;28;20094;-69
2022/03/23 06:28:02;;;;;;;31.00;13.55;;;;;;;;;;5031764;28;20419;-69
2022/03/23 06:30:27;;;;;;;25.52;12.93;;;;;;;;;;5035043;28;20099;-70
2022/03/23 06:32:53;;;;;;;32.35;13.13;;;;;;;;;;5031096;28;20083;-69
2022/03/23 06:35:18;;;;;;;29.92;13.13;;;;;;;;;;5034647;28;20017;-69
2022/03/23 06:37:43;;;;;;;30.70;11.95;;;;;;;;;;5036741;28;20044;-69
2022/03/23 06:40:09;;;;;;;30.40;13.43;;;;;;;;;;5034876;28;20029;-69
2022/03/23 06:42:34;;;;;;;44.78;12.85;;;;;;;;;;5033888;28;20109;-69
2022/03/23 06:45:02;;;;;;;23.35;10.95;;;;;;;;;;5033609;28;20362;-69
2022/03/23 06:47:27;;;;;;;27.13;12.55;;;;;;;;;;5036293;28;20056;-69
2022/03/23 06:49:52;;;;;;;30.70;12.25;;;;;;;;;;5039849;28;20069;-71
2022/03/23 06:52:17;;;;;;;29.80;12.77;;;;;;;;;;5029336;28;20529;-71
2022/03/23 06:54:43;;;;;;;26.90;11.82;;;;;;;;;;5027694;28;20330;-70
2022/03/23 06:57:08;;;;;;;27.00;12.52;;;;;;;;;;5027819;28;20033;-70
2022/03/23 06:59:33;;;;;;;27.70;12.15;;;;;;;;;;5038564;28;20022;-71
2022/03/23 07:01:58;;;;;;;27.33;13.70;;;;;;;;;;5041872;28;20022;-70
2022/03/23 07:04:24;;;;;;;27.70;13.60;;;;;;;;;;5031796;28;20021;-70
2022/03/23 07:06:50;;;;;;;22.90;13.10;;;;;;;;;;5038216;28;20025;-70
2022/03/23 07:09:35;;;;;;;20.52;12.00;;;;;;;;;;5036150;28;20538;-70
2022/03/23 07:12:10;;;;;;;22.02;12.13;;;;;;;;;;5022356;28;20021;-69
2022/03/23 07:14:38;;;;;;;23.42;13.50;;;;;;;;;;5041194;28;20025;-69
2022/03/23 07:17:04;;;;;;;21.58;12.18;;;;;;;;;;5036183;28;20024;-67
2022/03/23 07:19:29;;;;;;;25.33;12.15;;;;;;;;;;5034021;28;20112;-67
2022/03/23 07:21:55;;;;;;;20.30;11.30;;;;;;;;;;5020060;28;20108;-67
2022/03/23 07:24:20;;;;;;;30.63;12.25;;;;;;;;;;5039221;28;20474;-67
2022/03/23 07:26:46;;;;;;;23.90;13.05;;;;;;;;;;5039587;28;20021;-67
2022/03/23 07:29:11;;;;;;;26.38;13.00;;;;;;;;;;5031577;28;20028;-67
2022/03/23 07:31:36;;;;;;;19.55;11.65;;;;;;;;;;5034962;28;20553;-67
2022/03/23 07:34:02;;;;;;;25.25;13.30;;;;;;;;;;5019625;28;20040;-67
2022/03/23 07:36:28;;;;;;;19.75;11.95;;;;;;;;;;5036751;28;20029;-67
2022/03/23 07:38:54;;;;;;;31.20;13.40;;;;;;;;;;5038300;28;20025;-67
2022/03/23 07:41:19;;;;;;;26.63;13.43;;;;;;;;;;5037022;28;20013;-68
2022/03/23 07:43:44;;;;;;;22.02;12.27;;;;;;;;;;5031472;28;20029;-69
2022/03/23 07:46:09;;;;;;;21.87;12.63;;;;;;;;;;5030835;28;20017;-69
2022/03/23 07:48:35;;;;;;;19.35;12.40;;;;;;;;;;5027018;28;20256;-69
2022/03/23 07:51:00;;;;;;;22.45;12.52;;;;;;;;;;5026336;28;20045;-69
2022/03/23 07:53:25;;;;;;;22.27;12.77;;;;;;;;;;5038753;28;20024;-69
2022/03/23 07:55:50;;;;;;;24.83;13.00;;;;;;;;;;5036376;28;20430;-69
2022/03/23 07:58:15;;;;;;;25.63;13.40;;;;;;;;;;5039832;28;20271;-69
2022/03/23 08:00:43;;;;;;;26.98;13.38;;;;;;;;;;5037380;28;20315;-69
2022/03/23 08:03:09;;;;;;;23.08;12.88;;;;;;;;;;5037307;28;20071;-69
2022/03/23 08:05:36;;;;;;;21.83;12.27;;;;;;;;;;5035836;28;20025;-69
2022/03/23 08:08:01;;;;;;;22.00;12.05;;;;;;;;;;5035697;28;20288;-70
2022/03/23 08:10:26;;;;;;;30.48;12.40;;;;;;;;;;5039946;28;20067;-70
2022/03/23 08:12:53;;;;;;;19.33;12.25;;;;;;;;;;5040072;28;20032;-70
2022/03/23 08:15:18;;;;;;;26.45;12.98;;;;;;;;;;5029382;28;20024;-70
2022/03/23 08:17:44;;;;;;;18.13;11.85;;;;;;;;;;5038608;28;20032;-70
2022/03/23 08:22:53;;;;;;;23.50;13.27;;;;;;;;;;5033506;28;20031;-70
2022/03/23 08:25:18;;;;;;;25.58;12.95;;;;;;;;;;5038301;28;20398;-70
2022/03/23 08:27:44;;;;;;;20.50;12.98;;;;;;;;;;5038962;28;20087;-70
2022/03/23 08:30:09;;;;;;;18.83;12.48;;;;;;;;;;5034912;28;20051;-70
2022/03/23 08:32:34;;;;;;;20.88;13.30;;;;;;;;;;5033207;28;20028;-70
2022/03/23 08:35:00;;;;;;;22.92;13.52;;;;;;;;;;5037860;28;20104;-70
2022/03/23 08:37:26;;;;;;;22.37;13.70;;;;;;;;;;5030734;28;20060;-70
2022/03/23 08:39:52;;;;;;;26.15;13.57;;;;;;;;;;5028671;28;20480;-70
2022/03/23 08:42:17;;;;;;;25.60;13.73;;;;;;;;;;5036005;28;20025;-70
2022/03/23 08:44:42;;;;;;;24.50;12.33;;;;;;;;;;5038165;28;20111;-70
2022/03/23 08:47:08;;;;;;;27.48;12.93;;;;;;;;;;5033916;28;20028;-70
2022/03/23 08:49:34;;;;;;;29.33;15.52;;;;;;;;;;5035302;28;20040;-70
2022/03/23 08:51:59;;;;;;;23.55;12.98;;;;;;;;;;5031798;28;20021;-70
2022/03/23 08:54:24;;;;;;;26.07;11.50;;;;;;;;;;5029402;28;20025;-70
2022/03/23 08:56:49;;;;;;;30.65;15.82;;;;;;;;;;5030793;28;20466;-69
2022/03/23 08:59:15;;;;;;;37.70;14.80;;;;;;;;;;5036609;28;20029;-69
2022/03/23 09:01:40;;;;;;;35.80;15.70;;;;;;;;;;5029816;28;20626;-69
2022/03/23 09:04:07;;;;;;;30.13;15.77;;;;;;;;;;5034926;28;20283;-69
2022/03/23 09:06:33;;;;;;;33.78;18.08;;;;;;;;;;5034541;28;20339;-69
2022/03/23 09:08:58;;;;;;;34.83;16.73;;;;;;;;;;5018766;28;20121;-69
2022/03/23 09:11:23;;;;;;;29.73;15.00;;;;;;;;;;5034965;28;20135;-69
2022/03/23 09:13:49;;;;;;;30.33;17.45;;;;;;;;;;5033785;28;20021;-69
2022/03/23 09:16:14;;;;;;;29.13;16.90;;;;;;;;;;5042296;28;20025;-69
2022/03/23 09:18:40;;;;;;;34.17;17.83;;;;;;;;;;5036304;28;20063;-69
2022/03/23 09:21:05;;;;;;;32.28;16.38;;;;;;;;;;5030629;28;20047;-69
2022/03/23 09:23:30;;;;;;;19.27;9.20;;;;;;;;;;5034229;28;20426;-69
2022/03/23 09:25:55;;;;;;;32.72;16.05;;;;;;;;;;5035177;28;20551;-70
2022/03/23 09:28:21;;;;;;;32.00;17.67;;;;;;;;;;5031893;28;20026;-69
2022/03/23 09:30:46;;;;;;;32.88;17.67;;;;;;;;;;5042896;28;20363;-69
2022/03/23 09:33:11;;;;;;;31.83;16.20;;;;;;;;;;5038886;28;20075;-69
2022/03/23 09:35:36;;;;;;;28.40;15.70;;;;;;;;;;5040240;28;21732;-69
2022/03/23 09:38:04;;;;;;;31.47;15.23;;;;;;;;;;5039718;28;20018;-69
2022/03/23 09:40:31;;;;;;;32.50;17.23;;;;;;;;;;5039887;28;20252;-69
2022/03/23 09:43:00;;;;;;;27.75;15.75;;;;;;;;;;5041717;28;20048;-69
2022/03/23 09:47:56;;;;;;;27.95;14.23;;;;;;;;;;5039450;28;20067;-69
2022/03/23 09:50:22;;;;;;;27.33;15.75;;;;;;;;;;5035661;28;20420;-69
2022/03/23 09:52:47;;;;;;;34.08;17.73;;;;;;;;;;5041032;28;20033;-69
2022/03/23 09:55:12;;;;;;;31.48;16.50;;;;;;;;;;5042982;28;20481;-69
2022/03/23 09:57:37;;;;;;;30.57;17.33;;;;;;;;;;5038886;28;20021;-70
2022/03/23 10:00:04;;;;;;;31.98;16.92;;;;;;;;;;5032283;28;20296;-69
2022/03/23 10:02:38;;;;;;;29.05;17.02;;;;;;;;;;5036764;28;20017;-69
2022/03/23 10:05:24;;;;;;;34.83;16.60;;;;;;;;;;5040213;28;20473;-69
2022/03/23 10:07:49;;;;;;;31.30;16.65;;;;;;;;;;5042405;28;20025;-69
2022/03/23 10:10:34;;;;;;;31.13;16.67;;;;;;;;;;5041817;28;20079;-69
2022/03/23 10:13:17;;;;;;;31.88;17.05;;;;;;;;;;5035589;28;20100;-69
2022/03/23 10:15:45;;;;;;;28.92;16.83;;;;;;;;;;5041693;28;20028;-70
2022/03/23 10:18:29;;;;;;;26.05;15.00;;;;;;;;;;5032273;28;20025;-70
2022/03/23 10:20:54;;;;;;;29.30;15.73;;;;;;;;;;5031965;28;20473;-70
2022/03/23 10:23:23;;;;;;;31.53;16.63;;;;;;;;;;5041247;28;20116;-70
2022/03/23 10:25:49;;;;;;;28.05;16.13;;;;;;;;;;5036001;28;20657;-70
2022/03/23 10:28:14;;;;;;;26.60;15.48;;;;;;;;;;5034779;28;20025;-70
2022/03/23 10:30:41;;;;;;;25.83;15.88;;;;;;;;;;5028302;28;20027;-70
2022/03/23 10:33:23;;;;;;;31.33;15.77;;;;;;;;;;5024780;28;20024;-70
2022/03/23 10:35:48;;;;;;;29.23;16.17;;;;;;;;;;5032381;28;20033;-70
2022/03/23 10:38:15;;;;;;;26.55;16.15;;;;;;;;;;5006224;28;20021;-71
2022/03/23 10:40:41;;;;;;;30.15;16.77;;;;;;;;;;5024804;28;20029;-70
2022/03/23 10:43:07;;;;;;;32.05;17.20;;;;;;;;;;5032990;28;20048;-71
2022/03/23 10:45:32;;;;;;;31.75;15.82;;;;;;;;;;5028049;28;20041;-70
2022/03/23 10:48:07;;;;;;;28.47;15.77;;;;;;;;;;5027377;28;20018;-71
2022/03/23 10:50:32;;;;;;;30.10;15.65;;;;;;;;;;5029287;28;20268;-72
2022/03/23 10:52:58;;;;;;;26.60;16.08;;;;;;;;;;5029999;28;20114;-70
2022/03/23 10:55:25;;;;;;;27.42;16.20;;;;;;;;;;5026934;28;20100;-71
2022/03/23 10:57:51;;;;;;;32.35;16.90;;;;;;;;;;5030392;28;20013;-70
2022/03/23 11:00:17;;;;;;;25.58;14.40;;;;;;;;;;5028823;28;20022;-71
2022/03/23 11:02:46;;;;;;;36.85;12.30;;;;;;;;;;5034279;28;20056;-70
2022/03/23 11:05:13;;;;;;;24.73;14.80;;;;;;;;;;5034546;28;20067;-70
2022/03/23 11:07:40;;;;;;;25.58;14.52;;;;;;;;;;5033187;28;20051;-70
2022/03/23 11:15:47;;;;;;;32.33;16.63;;;;;;;;;;5037839;28;20040;-70
2022/03/23 11:18:15;;;;;;;28.17;12.15;;;;;;;;;;5030565;28;20030;-70
2022/03/23 11:20:46;;;;;;;30.15;14.73;;;;;;;;;;5031149;28;20021;-71
2022/03/23 11:23:24;;;;;;;30.60;14.63;;;;;;;;;;5033116;28;20530;-71
2022/03/23 11:25:54;;;;;;;27.65;14.95;;;;;;;;;;5032445;28;20013;-70
2022/03/23 11:28:20;;;;;;;24.45;14.20;;;;;;;;;;5030991;28;20064;-70
2022/03/23 11:30:46;;;;;;;36.20;13.13;;;;;;;;;;5031653;28;20106;-71
2022/03/23 11:33:14;;;;;;;25.67;14.90;;;;;;;;;;5036819;28;20603;-70
2022/03/23 11:35:46;;;;;;;32.15;15.55;;;;;;;;;;5032722;28;20079;-70
2022/03/23 11:38:12;;;;;;;33.65;15.98;;;;;;;;;;5029382;28;20021;-71
2022/03/23 11:40:38;;;;;;;28.63;15.32;;;;;;;;;;5032967;28;20024;-71
2022/03/23 11:43:04;;;;;;;27.77;13.25;;;;;;;;;;5027562;28;20026;-70
2022/03/23 11:45:29;;;;;;;21.15;12.88;;;;;;;;;;5034321;28;20091;-72
2022/03/23 11:47:58;;;;;;;29.65;15.35;;;;;;;;;;5038258;28;20053;-70
2022/03/23 11:50:32;;;;;;;24.52;13.82;;;;;;;;;;5035913;28;20025;-70
2022/03/23 11:53:18;;;;;;;21.83;13.40;;;;;;;;;;5034108;28;20100;-71
2022/03/23 11:55:48;;;;;;;25.80;13.82;;;;;;;;;;5021683;28;20037;-70
2022/03/23 11:58:23;;;;;;;23.20;13.40;;;;;;;;;;5027363;28;20482;-71
2022/03/23 12:00:51;;;;;;;31.23;15.07;;;;;;;;;;5042516;28;20025;-71
2022/03/23 12:03:37;;;;;;;35.13;15.13;;;;;;;;;;5021510;28;20473;-71
2022/03/23 12:06:09;;;;;;;28.77;14.05;;;;;;;;;;5018246;28;20036;-71
2022/03/23 12:08:50;;;;;;;34.80;15.20;;;;;;;;;;5042935;28;20123;-71
2022/03/23 12:11:34;;;;;;;29.98;16.00;;;;;;;;;;5035932;28;20028;-70
2022/03/23 12:14:00;;;;;;;25.45;14.27;;;;;;;;;;5037812;28;20075;-71
2022/03/23 12:16:44;;;;;;;25.75;14.48;;;;;;;;;;5036026;28;20018;-71
2022/03/23 12:19:10;;;;;;;26.20;14.88;;;;;;;;;;5036480;28;20025;-71
2022/03/23 12:21:43;;;;;;;26.58;14.63;;;;;;;;;;5032867;28;20017;-71
2022/03/23 12:24:11;;;;;;;31.52;14.15;;;;;;;;;;5036366;28;20027;-71
2022/03/23 12:26:39;;;;;;;28.58;15.30;;;;;;;;;;5027126;28;20097;-71
2022/03/23 12:29:08;;;;;;;32.05;16.45;;;;;;;;;;5035327;28;20051;-71
2022/03/23 12:31:37;;;;;;;29.63;15.23;;;;;;;;;;5034225;28;20021;-71
2022/03/23 12:34:02;;;;;;;32.75;15.88;;;;;;;;;;5039059;28;20030;-71
2022/03/23 12:36:56;;;;;;;29.45;15.50;;;;;;;;;;5035623;28;20035;-71
2022/03/23 12:39:20;;;;;;;23.33;13.95;;;;;;;;;;5030763;28;20083;-71
2022/03/23 12:41:46;;;;;;;26.50;13.85;;;;;;;;;;5037628;28;20037;-71
2022/03/23 12:44:12;;;;;;;27.75;14.32;;;;;;;;;;5032247;28;20028;-71
2022/03/23 12:46:42;;;;;;;25.17;15.07;;;;;;;;;;5017923;28;20079;-71
2022/03/23 12:57:49;;;;;;;37.53;17.55;;;;;;;;;;5035067;28;20058;-71
2022/03/23 13:00:26;;;;;;;37.80;17.33;;;;;;;;;;5027834;28;20805;-71
2022/03/23 13:03:07;;;;;;;32.22;16.60;;;;;;;;;;5030428;28;20025;-71
2022/03/23 13:05:33;;;;;;;29.90;16.77;;;;;;;;;;5033166;28;20025;-71
2022/03/23 13:07:58;;;;;;;16.83;9.45;;;;;;;;;;5037341;28;20025;-71
2022/03/23 13:10:26;;;;;;;32.72;17.13;;;;;;;;;;5029576;28;20013;-71
2022/03/23 13:13:05;;;;;;;29.23;16.65;;;;;;;;;;5030655;28;20063;-71
2022/03/23 13:15:30;;;;;;;29.85;14.07;;;;;;;;;;5012266;28;20036;-71
2022/03/23 13:17:56;;;;;;;29.57;14.93;;;;;;;;;;5028940;28;20482;-71
2022/03/23 13:20:21;;;;;;;39.00;16.35;;;;;;;;;;5037503;28;20283;-71
2022/03/23 13:22:46;;;;;;;28.00;15.43;;;;;;;;;;5036284;28;20032;-71
2022/03/23 13:25:16;;;;;;;43.53;17.65;;;;;;;;;;5033250;28;20563;-70
2022/03/23 13:27:42;;;;;;;28.48;14.68;;;;;;;;;;5017339;28;20039;-70
2022/03/23 13:30:10;;;;;;;28.25;14.05;;;;;;;;;;5038600;28;20013;-70
2022/03/23 13:32:39;;;;;;;31.05;14.73;;;;;;;;;;5029306;28;20028;-72
2022/03/23 13:35:11;;;;;;;31.45;15.98;;;;;;;;;;5026098;28;20084;-70
2022/03/23 13:37:51;;;;;;;30.45;14.55;;;;;;;;;;5026992;28;20793;-70
2022/03/23 13:40:20;;;;;;;27.20;15.33;;;;;;;;;;5027021;28;20219;-71
2022/03/23 13:45:30;;;;;;;31.98;14.60;;;;;;;;;;5026684;28;20036;-70
2022/03/23 13:47:55;;;;;;;27.07;14.13;;;;;;;;;;5034968;28;20017;-70
2022/03/23 13:50:20;;;;;;;25.85;14.20;;;;;;;;;;5034356;28;20752;-70
2022/03/23 13:52:46;;;;;;;31.03;14.83;;;;;;;;;;5032883;28;20017;-70
2022/03/23 13:55:16;;;;;;;24.98;14.15;;;;;;;;;;5034953;28;20267;-70
2022/03/23 13:57:42;;;;;;;33.13;14.65;;;;;;;;;;5034970;28;20071;-71
2022/03/23 14:00:27;;;;;;;26.63;14.50;;;;;;;;;;5032162;28;20429;-71
2022/03/23 14:02:53;;;;;;;33.17;14.68;;;;;;;;;;5035857;28;20028;-71
2022/03/23 14:05:19;;;;;;;33.75;16.20;;;;;;;;;;5032914;28;20497;-71
2022/03/23 14:07:45;;;;;;;28.98;13.75;;;;;;;;;;5031624;28;20040;-71
2022/03/23 14:10:10;;;;;;;35.40;17.30;;;;;;;;;;5029968;28;20397;-70
2022/03/23 14:12:35;;;;;;;27.00;15.43;;;;;;;;;;5033245;28;20022;-71
2022/03/23 14:15:01;;;;;;;26.30;15.20;;;;;;;;;;5035975;28;20044;-71
2022/03/23 14:17:28;;;;;;;25.77;14.82;;;;;;;;;;5041324;28;20474;-71
2022/03/23 14:19:56;;;;;;;35.88;16.48;;;;;;;;;;5034324;28;20027;-71
2022/03/23 14:22:23;;;;;;;36.33;16.83;;;;;;;;;;5037797;28;20234;-71
2022/03/23 14:24:49;;;;;;;31.17;16.60;;;;;;;;;;5036768;28;20444;-71
2022/03/23 14:27:15;;;;;;;30.23;18.33;;;;;;;;;;5035410;28;20017;-71
2022/03/23 14:29:44;;;;;;;29.10;15.32;;;;;;;;;;5039878;28;20017;-70
2022/03/23 14:32:11;;;;;;;32.03;18.48;;;;;;;;;;5040116;28;20103;-70
2022/03/23 14:34:37;;;;;;;30.83;16.20;;;;;;;;;;5043090;28;20073;-70
2022/03/23 14:37:06;;;;;;;37.40;16.23;;;;;;;;;;5041386;28;20028;-70
2022/03/23 14:39:38;;;;;;;31.02;16.15;;;;;;;;;;5037150;28;20033;-70
2022/03/23 14:42:06;;;;;;;30.23;15.65;;;;;;;;;;5039048;28;20017;-70
2022/03/23 14:44:34;;;;;;;32.78;16.95;;;;;;;;;;5025743;28;20026;-71
2022/03/23 14:46:59;;;;;;;34.30;16.80;;;;;;;;;;5032412;28;20032;-70